sensor_id;sensor_type;location;lat;lon;timestamp;temperature;humidity
25951;DHT22;13748;52.240;6.002;2023-06-19T00:00:12;23.80;94.30
25951;DHT22;13748;52.240;6.002;2023-06-19T00:02:43;23.80;94.40
25951;DHT22;13748;52.240;6.002;2023-06-19T00:05:12;23.70;94.50
25951;DHT22;13748;52.240;6.002;2023-06-19T00:07:39;23.80;94.60
25951;DHT22;13748;52.240;6.002;2023-06-19T00:10:07;23.70;94.70
25951;DHT22;13748;52.240;6.002;2023-06-19T00:12:34;23.70;94.70
25951;DHT22;13748;52.240;6.002;2023-06-19T00:15:01;23.60;94.80
25951;DHT22;13748;52.240;6.002;2023-06-19T00:17:29;23.60;95.00
25951;DHT22;13748;52.240;6.002;2023-06-19T00:19:56;23.50;95.10
25951;DHT22;13748;52.240;6.002;2023-06-19T00:22:24;23.60;95.30
25951;DHT22;13748;52.240;6.002;2023-06-19T00:24:56;23.60;95.30
25951;DHT22;13748;52.240;6.002;2023-06-19T00:27:23;23.50;95.40
25951;DHT22;13748;52.240;6.002;2023-06-19T00:29:51;23.40;95.50
25951;DHT22;13748;52.240;6.002;2023-06-19T00:32:21;23.50;95.60
25951;DHT22;13748;52.240;6.002;2023-06-19T00:34:48;23.50;95.70
25951;DHT22;13748;52.240;6.002;2023-06-19T00:37:18;23.50;95.80
25951;DHT22;13748;52.240;6.002;2023-06-19T00:39:45;23.40;95.90
25951;DHT22;13748;52.240;6.002;2023-06-19T00:42:18;23.40;96.10
25951;DHT22;13748;52.240;6.002;2023-06-19T00:44:45;23.40;96.20
25951;DHT22;13748;52.240;6.002;2023-06-19T00:47:12;23.30;96.20
25951;DHT22;13748;52.240;6.002;2023-06-19T00:49:39;23.30;96.30
25951;DHT22;13748;52.240;6.002;2023-06-19T00:52:09;23.30;96.40
25951;DHT22;13748;52.240;6.002;2023-06-19T00:54:47;23.30;96.50
25951;DHT22;13748;52.240;6.002;2023-06-19T00:57:14;23.10;96.60
25951;DHT22;13748;52.240;6.002;2023-06-19T00:59:41;23.20;96.70
25951;DHT22;13748;52.240;6.002;2023-06-19T01:02:09;23.20;96.80
25951;DHT22;13748;52.240;6.002;2023-06-19T01:04:36;23.20;97.10
25951;DHT22;13748;52.240;6.002;2023-06-19T01:07:11;23.10;97.10
25951;DHT22;13748;52.240;6.002;2023-06-19T01:09:48;23.10;97.30
25951;DHT22;13748;52.240;6.002;2023-06-19T01:12:26;23.10;97.40
25951;DHT22;13748;52.240;6.002;2023-06-19T01:14:59;23.00;97.70
25951;DHT22;13748;52.240;6.002;2023-06-19T01:17:28;23.00;97.90
25951;DHT22;13748;52.240;6.002;2023-06-19T01:20:01;23.00;98.20
25951;DHT22;13748;52.240;6.002;2023-06-19T01:22:33;22.90;98.30
25951;DHT22;13748;52.240;6.002;2023-06-19T01:25:00;22.90;98.70
25951;DHT22;13748;52.240;6.002;2023-06-19T01:27:30;22.90;99.20
25951;DHT22;13748;52.240;6.002;2023-06-19T01:29:59;22.90;99.40
25951;DHT22;13748;52.240;6.002;2023-06-19T01:35:24;22.90;99.90
25951;DHT22;13748;52.240;6.002;2023-06-19T01:37:52;22.80;99.90
25951;DHT22;13748;52.240;6.002;2023-06-19T01:40:20;22.80;99.90
25951;DHT22;13748;52.240;6.002;2023-06-19T01:42:53;22.90;99.90
25951;DHT22;13748;52.240;6.002;2023-06-19T01:45:21;22.90;99.90
25951;DHT22;13748;52.240;6.002;2023-06-19T01:47:51;22.80;99.90
25951;DHT22;13748;52.240;6.002;2023-06-19T01:50:19;22.90;99.90
25951;DHT22;13748;52.240;6.002;2023-06-19T01:52:48;22.90;99.90
25951;DHT22;13748;52.240;6.002;2023-06-19T01:55:19;23.00;99.90
25951;DHT22;13748;52.240;6.002;2023-06-19T01:57:46;23.00;99.90
25951;DHT22;13748;52.240;6.002;2023-06-19T02:00:17;22.90;99.90
25951;DHT22;13748;52.240;6.002;2023-06-19T02:02:51;22.90;99.90
25951;DHT22;13748;52.240;6.002;2023-06-19T02:05:21;23.00;99.90
25951;DHT22;13748;52.240;6.002;2023-06-19T02:07:49;22.90;99.90
25951;DHT22;13748;52.240;6.002;2023-06-19T02:10:19;22.80;99.90
25951;DHT22;13748;52.240;6.002;2023-06-19T02:12:46;22.90;99.90
25951;DHT22;13748;52.240;6.002;2023-06-19T02:15:20;22.80;99.90
25951;DHT22;13748;52.240;6.002;2023-06-19T02:17:48;22.80;99.90
25951;DHT22;13748;52.240;6.002;2023-06-19T02:20:18;22.60;99.90
25951;DHT22;13748;52.240;6.002;2023-06-19T02:22:47;22.60;99.90
25951;DHT22;13748;52.240;6.002;2023-06-19T02:25:17;22.60;99.90
25951;DHT22;13748;52.240;6.002;2023-06-19T02:27:45;22.60;99.90
25951;DHT22;13748;52.240;6.002;2023-06-19T02:30:12;22.50;99.90
25951;DHT22;13748;52.240;6.002;2023-06-19T02:32:44;22.40;99.90
25951;DHT22;13748;52.240;6.002;2023-06-19T02:35:11;22.30;99.90
25951;DHT22;13748;52.240;6.002;2023-06-19T02:37:39;22.20;99.90
25951;DHT22;13748;52.240;6.002;2023-06-19T02:40:07;22.10;99.90
25951;DHT22;13748;52.240;6.002;2023-06-19T02:42:45;22.00;99.90
25951;DHT22;13748;52.240;6.002;2023-06-19T02:45:22;21.90;99.90
25951;DHT22;13748;52.240;6.002;2023-06-19T02:47:50;21.80;99.90
25951;DHT22;13748;52.240;6.002;2023-06-19T02:50:27;21.80;99.90
25951;DHT22;13748;52.240;6.002;2023-06-19T02:52:56;21.70;99.90
25951;DHT22;13748;52.240;6.002;2023-06-19T02:55:26;21.70;99.90
25951;DHT22;13748;52.240;6.002;2023-06-19T02:57:58;21.70;99.90
25951;DHT22;13748;52.240;6.002;2023-06-19T03:00:25;21.60;99.90
25951;DHT22;13748;52.240;6.002;2023-06-19T03:02:55;21.60;99.90
25951;DHT22;13748;52.240;6.002;2023-06-19T03:05:22;21.50;99.90
25951;DHT22;13748;52.240;6.002;2023-06-19T03:07:52;21.60;99.90
25951;DHT22;13748;52.240;6.002;2023-06-19T03:10:19;21.60;99.90
25951;DHT22;13748;52.240;6.002;2023-06-19T03:12:49;21.50;99.90
25951;DHT22;13748;52.240;6.002;2023-06-19T03:15:21;21.40;99.90
25951;DHT22;13748;52.240;6.002;2023-06-19T03:17:48;21.40;99.90
25951;DHT22;13748;52.240;6.002;2023-06-19T03:20:15;21.40;99.90
25951;DHT22;13748;52.240;6.002;2023-06-19T03:22:43;21.50;99.90
25951;DHT22;13748;52.240;6.002;2023-06-19T03:25:10;21.30;99.90
25951;DHT22;13748;52.240;6.002;2023-06-19T03:27:40;21.30;99.90
25951;DHT22;13748;52.240;6.002;2023-06-19T03:30:08;21.20;99.90
25951;DHT22;13748;52.240;6.002;2023-06-19T03:32:44;21.20;99.90
25951;DHT22;13748;52.240;6.002;2023-06-19T03:35:11;21.10;99.90
25951;DHT22;13748;52.240;6.002;2023-06-19T03:37:44;21.10;99.90
25951;DHT22;13748;52.240;6.002;2023-06-19T03:40:14;21.10;99.90
25951;DHT22;13748;52.240;6.002;2023-06-19T03:42:43;21.10;99.90
25951;DHT22;13748;52.240;6.002;2023-06-19T03:45:13;21.40;99.90
25951;DHT22;13748;52.240;6.002;2023-06-19T03:47:41;21.00;99.90
25951;DHT22;13748;52.240;6.002;2023-06-19T03:50:10;21.10;99.90
25951;DHT22;13748;52.240;6.002;2023-06-19T03:52:56;21.10;99.90
25951;DHT22;13748;52.240;6.002;2023-06-19T03:55:25;21.20;99.90
25951;DHT22;13748;52.240;6.002;2023-06-19T03:57:55;21.20;99.90
25951;DHT22;13748;52.240;6.002;2023-06-19T04:00:22;21.20;99.90
25951;DHT22;13748;52.240;6.002;2023-06-19T04:02:49;21.30;99.90
25951;DHT22;13748;52.240;6.002;2023-06-19T04:05:24;21.20;99.90
25951;DHT22;13748;52.240;6.002;2023-06-19T04:07:52;21.20;99.90
25951;DHT22;13748;52.240;6.002;2023-06-19T04:10:25;21.20;99.90
25951;DHT22;13748;52.240;6.002;2023-06-19T04:12:57;21.20;99.90
25951;DHT22;13748;52.240;6.002;2023-06-19T04:15:28;21.10;99.90
25951;DHT22;13748;52.240;6.002;2023-06-19T04:17:56;21.30;99.90
25951;DHT22;13748;52.240;6.002;2023-06-19T04:20:27;21.30;99.90
25951;DHT22;13748;52.240;6.002;2023-06-19T04:22:55;21.40;99.90
25951;DHT22;13748;52.240;6.002;2023-06-19T04:25:22;21.40;99.90
25951;DHT22;13748;52.240;6.002;2023-06-19T04:27:50;21.50;99.90
25951;DHT22;13748;52.240;6.002;2023-06-19T04:30:19;21.50;99.90
25951;DHT22;13748;52.240;6.002;2023-06-19T04:32:52;21.50;99.90
25951;DHT22;13748;52.240;6.002;2023-06-19T04:35:20;21.60;99.90
25951;DHT22;13748;52.240;6.002;2023-06-19T04:37:51;21.60;99.90
25951;DHT22;13748;52.240;6.002;2023-06-19T04:40:24;21.60;99.90
25951;DHT22;13748;52.240;6.002;2023-06-19T04:42:54;21.60;99.90
25951;DHT22;13748;52.240;6.002;2023-06-19T04:45:24;21.70;99.90
25951;DHT22;13748;52.240;6.002;2023-06-19T04:47:54;21.70;99.90
25951;DHT22;13748;52.240;6.002;2023-06-19T04:50:22;21.60;99.90
25951;DHT22;13748;52.240;6.002;2023-06-19T04:52:50;21.60;99.90
25951;DHT22;13748;52.240;6.002;2023-06-19T04:55:20;21.60;99.90
25951;DHT22;13748;52.240;6.002;2023-06-19T04:58:02;21.60;99.90
25951;DHT22;13748;52.240;6.002;2023-06-19T05:00:29;21.60;99.90
25951;DHT22;13748;52.240;6.002;2023-06-19T05:03:07;21.50;99.90
25951;DHT22;13748;52.240;6.002;2023-06-19T05:05:37;21.50;99.90
25951;DHT22;13748;52.240;6.002;2023-06-19T05:08:07;21.40;99.90
25951;DHT22;13748;52.240;6.002;2023-06-19T05:10:37;21.40;99.90
25951;DHT22;13748;52.240;6.002;2023-06-19T05:13:05;21.50;99.90
25951;DHT22;13748;52.240;6.002;2023-06-19T05:15:32;21.50;99.90
25951;DHT22;13748;52.240;6.002;2023-06-19T05:17:59;21.40;99.90
25951;DHT22;13748;52.240;6.002;2023-06-19T05:20:26;21.50;99.90
25951;DHT22;13748;52.240;6.002;2023-06-19T05:22:53;21.50;99.90
25951;DHT22;13748;52.240;6.002;2023-06-19T05:25:25;21.60;99.90
25951;DHT22;13748;52.240;6.002;2023-06-19T05:27:59;21.70;99.90
25951;DHT22;13748;52.240;6.002;2023-06-19T05:30:31;21.50;99.90
25951;DHT22;13748;52.240;6.002;2023-06-19T05:32:58;21.60;99.90
25951;DHT22;13748;52.240;6.002;2023-06-19T05:35:25;21.60;99.90
25951;DHT22;13748;52.240;6.002;2023-06-19T05:37:53;21.60;99.90
25951;DHT22;13748;52.240;6.002;2023-06-19T05:43:23;21.50;99.90
25951;DHT22;13748;52.240;6.002;2023-06-19T05:45:55;21.40;99.90
25951;DHT22;13748;52.240;6.002;2023-06-19T05:48:27;21.40;99.90
25951;DHT22;13748;52.240;6.002;2023-06-19T05:50:54;21.30;99.90
25951;DHT22;13748;52.240;6.002;2023-06-19T05:53:21;21.30;99.90
25951;DHT22;13748;52.240;6.002;2023-06-19T05:55:50;21.30;99.90
25951;DHT22;13748;52.240;6.002;2023-06-19T05:58:18;21.20;99.90
25951;DHT22;13748;52.240;6.002;2023-06-19T06:00:49;21.10;99.90
25951;DHT22;13748;52.240;6.002;2023-06-19T06:03:19;21.10;99.90
25951;DHT22;13748;52.240;6.002;2023-06-19T06:05:49;21.20;99.90
25951;DHT22;13748;52.240;6.002;2023-06-19T06:08:21;21.00;99.90
25951;DHT22;13748;52.240;6.002;2023-06-19T06:10:50;21.10;99.90
25951;DHT22;13748;52.240;6.002;2023-06-19T06:13:20;21.20;99.90
25951;DHT22;13748;52.240;6.002;2023-06-19T06:15:50;21.20;99.90
25951;DHT22;13748;52.240;6.002;2023-06-19T06:18:25;21.30;99.90
25951;DHT22;13748;52.240;6.002;2023-06-19T06:20:55;21.30;99.90
25951;DHT22;13748;52.240;6.002;2023-06-19T06:23:22;21.30;99.90
25951;DHT22;13748;52.240;6.002;2023-06-19T06:25:50;21.50;99.90
25951;DHT22;13748;52.240;6.002;2023-06-19T06:28:28;21.50;99.90
25951;DHT22;13748;52.240;6.002;2023-06-19T06:30:55;21.50;99.90
25951;DHT22;13748;52.240;6.002;2023-06-19T06:33:24;21.50;99.90
25951;DHT22;13748;52.240;6.002;2023-06-19T06:35:57;21.40;99.90
25951;DHT22;13748;52.240;6.002;2023-06-19T06:38:25;21.40;99.90
25951;DHT22;13748;52.240;6.002;2023-06-19T06:40:52;21.50;99.90
25951;DHT22;13748;52.240;6.002;2023-06-19T06:43:29;21.60;99.90
25951;DHT22;13748;52.240;6.002;2023-06-19T06:46:05;21.70;99.90
25951;DHT22;13748;52.240;6.002;2023-06-19T06:48:39;21.80;99.90
25951;DHT22;13748;52.240;6.002;2023-06-19T06:51:10;21.80;99.90
25951;DHT22;13748;52.240;6.002;2023-06-19T06:53:37;22.00;99.90
25951;DHT22;13748;52.240;6.002;2023-06-19T06:56:04;22.10;99.90
25951;DHT22;13748;52.240;6.002;2023-06-19T06:58:32;22.10;99.90
25951;DHT22;13748;52.240;6.002;2023-06-19T07:00:59;22.10;99.90
25951;DHT22;13748;52.240;6.002;2023-06-19T07:03:26;22.10;99.90
25951;DHT22;13748;52.240;6.002;2023-06-19T07:05:58;22.10;99.90
25951;DHT22;13748;52.240;6.002;2023-06-19T07:08:28;22.20;99.90
25951;DHT22;13748;52.240;6.002;2023-06-19T07:11:04;22.30;99.90
25951;DHT22;13748;52.240;6.002;2023-06-19T07:13:32;22.20;99.90
25951;DHT22;13748;52.240;6.002;2023-06-19T07:15:59;22.10;99.90
25951;DHT22;13748;52.240;6.002;2023-06-19T07:18:28;22.10;99.90
25951;DHT22;13748;52.240;6.002;2023-06-19T07:21:01;22.10;99.90
25951;DHT22;13748;52.240;6.002;2023-06-19T07:23:35;22.00;99.90
25951;DHT22;13748;52.240;6.002;2023-06-19T07:26:13;22.00;99.90
25951;DHT22;13748;52.240;6.002;2023-06-19T07:28:42;21.90;99.90
25951;DHT22;13748;52.240;6.002;2023-06-19T07:31:09;21.80;99.90
25951;DHT22;13748;52.240;6.002;2023-06-19T07:33:36;21.80;99.90
25951;DHT22;13748;52.240;6.002;2023-06-19T07:36:04;21.80;99.90
25951;DHT22;13748;52.240;6.002;2023-06-19T07:38:32;21.90;99.90
25951;DHT22;13748;52.240;6.002;2023-06-19T07:41:01;22.00;99.90
25951;DHT22;13748;52.240;6.002;2023-06-19T07:43:29;21.90;99.90
25951;DHT22;13748;52.240;6.002;2023-06-19T07:45:56;21.90;99.90
25951;DHT22;13748;52.240;6.002;2023-06-19T07:50:57;22.30;99.90
25951;DHT22;13748;52.240;6.002;2023-06-19T07:53:24;22.70;99.90
25951;DHT22;13748;52.240;6.002;2023-06-19T07:58:21;23.60;99.90
25951;DHT22;13748;52.240;6.002;2023-06-19T08:00:49;24.30;99.90
25951;DHT22;13748;52.240;6.002;2023-06-19T08:03:16;25.00;99.90
25951;DHT22;13748;52.240;6.002;2023-06-19T08:05:46;25.70;99.90
25951;DHT22;13748;52.240;6.002;2023-06-19T08:08:14;25.90;99.90
25951;DHT22;13748;52.240;6.002;2023-06-19T08:10:45;25.90;99.90
25951;DHT22;13748;52.240;6.002;2023-06-19T08:13:12;26.10;99.90
25951;DHT22;13748;52.240;6.002;2023-06-19T08:15:40;26.40;99.90
25951;DHT22;13748;52.240;6.002;2023-06-19T08:18:09;26.80;99.90
25951;DHT22;13748;52.240;6.002;2023-06-19T08:20:48;27.30;99.90
25951;DHT22;13748;52.240;6.002;2023-06-19T08:23:26;27.30;99.90
25951;DHT22;13748;52.240;6.002;2023-06-19T08:25:58;27.20;99.90
25951;DHT22;13748;52.240;6.002;2023-06-19T08:28:26;26.70;99.90
25951;DHT22;13748;52.240;6.002;2023-06-19T08:30:54;26.40;99.90
25951;DHT22;13748;52.240;6.002;2023-06-19T08:33:30;26.30;99.90
25951;DHT22;13748;52.240;6.002;2023-06-19T08:36:02;26.40;99.90
25951;DHT22;13748;52.240;6.002;2023-06-19T08:38:29;26.70;99.90
25951;DHT22;13748;52.240;6.002;2023-06-19T08:41:07;27.00;99.90
25951;DHT22;13748;52.240;6.002;2023-06-19T08:43:43;27.10;99.90
25951;DHT22;13748;52.240;6.002;2023-06-19T08:46:18;27.10;99.90
25951;DHT22;13748;52.240;6.002;2023-06-19T08:48:50;26.70;99.90
25951;DHT22;13748;52.240;6.002;2023-06-19T08:51:20;26.40;99.90
25951;DHT22;13748;52.240;6.002;2023-06-19T08:54:05;26.50;99.90
25951;DHT22;13748;52.240;6.002;2023-06-19T08:56:33;26.30;99.90
25951;DHT22;13748;52.240;6.002;2023-06-19T08:59:14;26.30;99.90
25951;DHT22;13748;52.240;6.002;2023-06-19T09:01:52;26.10;99.90
25951;DHT22;13748;52.240;6.002;2023-06-19T09:04:25;26.10;99.90
25951;DHT22;13748;52.240;6.002;2023-06-19T09:07:01;25.90;99.90
25951;DHT22;13748;52.240;6.002;2023-06-19T09:09:32;26.00;99.90
25951;DHT22;13748;52.240;6.002;2023-06-19T09:12:06;25.70;99.90
25951;DHT22;13748;52.240;6.002;2023-06-19T09:14:42;25.70;99.90
25951;DHT22;13748;52.240;6.002;2023-06-19T09:17:19;25.50;99.90
25951;DHT22;13748;52.240;6.002;2023-06-19T09:19:48;25.50;99.90
25951;DHT22;13748;52.240;6.002;2023-06-19T09:22:21;25.90;99.90
25951;DHT22;13748;52.240;6.002;2023-06-19T09:24:50;26.30;99.90
25951;DHT22;13748;52.240;6.002;2023-06-19T09:27:23;26.50;99.90
25951;DHT22;13748;52.240;6.002;2023-06-19T09:29:51;26.80;99.90
25951;DHT22;13748;52.240;6.002;2023-06-19T09:32:34;26.50;99.90
25951;DHT22;13748;52.240;6.002;2023-06-19T09:35:02;26.30;99.90
25951;DHT22;13748;52.240;6.002;2023-06-19T09:37:31;26.20;99.90
25951;DHT22;13748;52.240;6.002;2023-06-19T09:40:00;26.00;99.90
25951;DHT22;13748;52.240;6.002;2023-06-19T09:42:31;26.00;99.90
25951;DHT22;13748;52.240;6.002;2023-06-19T09:45:07;25.90;99.90
25951;DHT22;13748;52.240;6.002;2023-06-19T09:47:38;25.80;99.90
25951;DHT22;13748;52.240;6.002;2023-06-19T09:50:12;25.90;99.90
25951;DHT22;13748;52.240;6.002;2023-06-19T09:52:40;26.10;99.90
25951;DHT22;13748;52.240;6.002;2023-06-19T09:55:09;26.10;99.90
25951;DHT22;13748;52.240;6.002;2023-06-19T09:57:41;26.20;99.90
25951;DHT22;13748;52.240;6.002;2023-06-19T10:00:09;26.20;99.90
25951;DHT22;13748;52.240;6.002;2023-06-19T10:02:43;26.20;99.90
25951;DHT22;13748;52.240;6.002;2023-06-19T10:05:11;26.20;99.90
25951;DHT22;13748;52.240;6.002;2023-06-19T10:07:44;26.20;99.90
25951;DHT22;13748;52.240;6.002;2023-06-19T10:12:51;26.60;99.90
25951;DHT22;13748;52.240;6.002;2023-06-19T10:15:45;26.90;99.90
25951;DHT22;13748;52.240;6.002;2023-06-19T10:18:15;27.30;99.90
25951;DHT22;13748;52.240;6.002;2023-06-19T10:20:47;27.50;99.90
25951;DHT22;13748;52.240;6.002;2023-06-19T10:23:20;27.70;99.90
25951;DHT22;13748;52.240;6.002;2023-06-19T10:25:56;27.80;99.90
25951;DHT22;13748;52.240;6.002;2023-06-19T10:28:31;27.70;99.90
25951;DHT22;13748;52.240;6.002;2023-06-19T10:31:00;27.70;99.90
25951;DHT22;13748;52.240;6.002;2023-06-19T10:33:36;27.60;99.90
25951;DHT22;13748;52.240;6.002;2023-06-19T10:36:33;27.30;99.90
25951;DHT22;13748;52.240;6.002;2023-06-19T10:39:03;27.60;99.90
25951;DHT22;13748;52.240;6.002;2023-06-19T10:41:34;27.70;99.90
25951;DHT22;13748;52.240;6.002;2023-06-19T10:44:06;27.90;99.90
25951;DHT22;13748;52.240;6.002;2023-06-19T10:46:36;27.90;99.90
25951;DHT22;13748;52.240;6.002;2023-06-19T10:49:05;28.00;99.90
25951;DHT22;13748;52.240;6.002;2023-06-19T10:51:35;27.90;99.90
25951;DHT22;13748;52.240;6.002;2023-06-19T10:54:08;28.00;99.90
25951;DHT22;13748;52.240;6.002;2023-06-19T10:56:41;28.10;99.90
25951;DHT22;13748;52.240;6.002;2023-06-19T10:59:22;28.10;99.90
25951;DHT22;13748;52.240;6.002;2023-06-19T11:02:03;28.10;99.90
25951;DHT22;13748;52.240;6.002;2023-06-19T11:04:59;28.10;99.90
25951;DHT22;13748;52.240;6.002;2023-06-19T11:08:01;28.10;99.90
25951;DHT22;13748;52.240;6.002;2023-06-19T11:11:07;28.10;99.90
25951;DHT22;13748;52.240;6.002;2023-06-19T11:13:51;28.00;99.90
25951;DHT22;13748;52.240;6.002;2023-06-19T11:16:22;28.00;99.90
25951;DHT22;13748;52.240;6.002;2023-06-19T11:18:56;27.80;99.90
25951;DHT22;13748;52.240;6.002;2023-06-19T11:21:36;27.80;99.90
25951;DHT22;13748;52.240;6.002;2023-06-19T11:24:13;27.70;99.90
25951;DHT22;13748;52.240;6.002;2023-06-19T11:26:47;27.60;99.90
25951;DHT22;13748;52.240;6.002;2023-06-19T11:29:25;27.60;99.90
25951;DHT22;13748;52.240;6.002;2023-06-19T11:32:29;27.60;99.90
25951;DHT22;13748;52.240;6.002;2023-06-19T11:35:05;27.70;99.90
25951;DHT22;13748;52.240;6.002;2023-06-19T11:37:34;27.60;99.90
25951;DHT22;13748;52.240;6.002;2023-06-19T11:40:02;27.80;99.90
25951;DHT22;13748;52.240;6.002;2023-06-19T11:42:52;28.10;99.90
25951;DHT22;13748;52.240;6.002;2023-06-19T11:45:21;28.20;99.90
25951;DHT22;13748;52.240;6.002;2023-06-19T11:47:50;28.20;99.90
25951;DHT22;13748;52.240;6.002;2023-06-19T11:50:18;28.40;99.70
25951;DHT22;13748;52.240;6.002;2023-06-19T11:52:47;28.40;99.60
25951;DHT22;13748;52.240;6.002;2023-06-19T11:55:25;28.30;99.10
25951;DHT22;13748;52.240;6.002;2023-06-19T11:57:53;28.40;98.90
25951;DHT22;13748;52.240;6.002;2023-06-19T12:00:20;28.10;98.20
25951;DHT22;13748;52.240;6.002;2023-06-19T12:02:47;28.10;98.50
25951;DHT22;13748;52.240;6.002;2023-06-19T12:05:16;28.00;98.50
25951;DHT22;13748;52.240;6.002;2023-06-19T12:07:44;27.90;98.90
25951;DHT22;13748;52.240;6.002;2023-06-19T12:10:14;28.00;98.80
25951;DHT22;13748;52.240;6.002;2023-06-19T12:12:45;28.10;98.90
25951;DHT22;13748;52.240;6.002;2023-06-19T12:15:14;28.20;98.40
25951;DHT22;13748;52.240;6.002;2023-06-19T12:17:41;28.30;98.20
25951;DHT22;13748;52.240;6.002;2023-06-19T12:20:16;28.20;97.80
25951;DHT22;13748;52.240;6.002;2023-06-19T12:22:48;28.20;97.60
25951;DHT22;13748;52.240;6.002;2023-06-19T12:25:17;28.40;97.50
25951;DHT22;13748;52.240;6.002;2023-06-19T12:27:47;28.50;97.10
25951;DHT22;13748;52.240;6.002;2023-06-19T12:30:21;28.70;97.20
25951;DHT22;13748;52.240;6.002;2023-06-19T12:32:49;29.00;97.00
25951;DHT22;13748;52.240;6.002;2023-06-19T12:35:17;29.30;96.60
25951;DHT22;13748;52.240;6.002;2023-06-19T12:37:47;29.40;96.20
25951;DHT22;13748;52.240;6.002;2023-06-19T12:40:14;29.40;95.90
25951;DHT22;13748;52.240;6.002;2023-06-19T12:42:42;29.40;95.30
25951;DHT22;13748;52.240;6.002;2023-06-19T12:45:11;29.60;95.00
25951;DHT22;13748;52.240;6.002;2023-06-19T12:47:38;29.70;94.40
25951;DHT22;13748;52.240;6.002;2023-06-19T12:50:09;29.70;94.10
25951;DHT22;13748;52.240;6.002;2023-06-19T12:52:41;29.70;94.00
25951;DHT22;13748;52.240;6.002;2023-06-19T12:55:08;29.80;93.80
25951;DHT22;13748;52.240;6.002;2023-06-19T12:57:35;29.60;93.50
25951;DHT22;13748;52.240;6.002;2023-06-19T13:00:11;29.40;93.70
25951;DHT22;13748;52.240;6.002;2023-06-19T13:02:40;29.40;93.70
25951;DHT22;13748;52.240;6.002;2023-06-19T13:05:09;29.60;93.40
25951;DHT22;13748;52.240;6.002;2023-06-19T13:07:36;29.70;91.90
25951;DHT22;13748;52.240;6.002;2023-06-19T13:10:06;29.70;91.40
25951;DHT22;13748;52.240;6.002;2023-06-19T13:12:35;29.80;91.20
25951;DHT22;13748;52.240;6.002;2023-06-19T13:15:03;29.90;91.00
25951;DHT22;13748;52.240;6.002;2023-06-19T13:17:32;29.90;91.30
25951;DHT22;13748;52.240;6.002;2023-06-19T13:20:03;29.80;91.10
25951;DHT22;13748;52.240;6.002;2023-06-19T13:22:31;29.70;91.30
25951;DHT22;13748;52.240;6.002;2023-06-19T13:25:01;29.70;91.60
25951;DHT22;13748;52.240;6.002;2023-06-19T13:27:28;29.70;91.30
25951;DHT22;13748;52.240;6.002;2023-06-19T13:29:59;29.80;90.90
25951;DHT22;13748;52.240;6.002;2023-06-19T13:32:27;29.90;91.00
25951;DHT22;13748;52.240;6.002;2023-06-19T13:34:54;30.10;90.80
25951;DHT22;13748;52.240;6.002;2023-06-19T13:37:22;30.20;90.60
25951;DHT22;13748;52.240;6.002;2023-06-19T13:39:56;30.10;90.40
25951;DHT22;13748;52.240;6.002;2023-06-19T13:42:30;30.20;90.30
25951;DHT22;13748;52.240;6.002;2023-06-19T13:45:00;30.30;90.00
25951;DHT22;13748;52.240;6.002;2023-06-19T13:47:29;30.30;89.00
25951;DHT22;13748;52.240;6.002;2023-06-19T13:49:57;30.20;89.60
25951;DHT22;13748;52.240;6.002;2023-06-19T13:52:46;30.10;90.10
25951;DHT22;13748;52.240;6.002;2023-06-19T13:55:13;30.00;90.10
25951;DHT22;13748;52.240;6.002;2023-06-19T13:57:49;29.90;90.10
25951;DHT22;13748;52.240;6.002;2023-06-19T14:00:23;29.90;89.90
25951;DHT22;13748;52.240;6.002;2023-06-19T14:02:54;30.00;89.70
25951;DHT22;13748;52.240;6.002;2023-06-19T14:05:24;30.00;89.80
25951;DHT22;13748;52.240;6.002;2023-06-19T14:07:54;30.00;89.30
25951;DHT22;13748;52.240;6.002;2023-06-19T14:10:36;30.00;89.00
25951;DHT22;13748;52.240;6.002;2023-06-19T14:13:17;30.20;88.70
25951;DHT22;13748;52.240;6.002;2023-06-19T14:15:47;30.10;88.10
25951;DHT22;13748;52.240;6.002;2023-06-19T14:18:14;30.20;87.70
25951;DHT22;13748;52.240;6.002;2023-06-19T14:20:41;30.10;87.10
25951;DHT22;13748;52.240;6.002;2023-06-19T14:23:11;30.20;87.50
25951;DHT22;13748;52.240;6.002;2023-06-19T14:25:39;30.20;87.60
25951;DHT22;13748;52.240;6.002;2023-06-19T14:28:11;30.10;87.80
25951;DHT22;13748;52.240;6.002;2023-06-19T14:30:46;30.20;87.10
25951;DHT22;13748;52.240;6.002;2023-06-19T14:36:15;30.30;85.10
25951;DHT22;13748;52.240;6.002;2023-06-19T14:38:46;30.50;86.00
25951;DHT22;13748;52.240;6.002;2023-06-19T14:41:16;30.50;85.90
25951;DHT22;13748;52.240;6.002;2023-06-19T14:43:47;30.50;85.80
25951;DHT22;13748;52.240;6.002;2023-06-19T14:46:20;30.50;86.30
25951;DHT22;13748;52.240;6.002;2023-06-19T14:49:14;30.50;86.70
25951;DHT22;13748;52.240;6.002;2023-06-19T14:51:42;30.60;86.60
25951;DHT22;13748;52.240;6.002;2023-06-19T14:54:24;30.60;86.00
25951;DHT22;13748;52.240;6.002;2023-06-19T14:57:24;30.60;86.00
25951;DHT22;13748;52.240;6.002;2023-06-19T15:00:08;30.70;86.20
25951;DHT22;13748;52.240;6.002;2023-06-19T15:02:36;30.90;86.20
25951;DHT22;13748;52.240;6.002;2023-06-19T15:06:06;30.90;86.00
25951;DHT22;13748;52.240;6.002;2023-06-19T15:09:40;31.00;85.30
25951;DHT22;13748;52.240;6.002;2023-06-19T15:12:31;30.90;86.20
25951;DHT22;13748;52.240;6.002;2023-06-19T15:15:24;31.10;85.90
25951;DHT22;13748;52.240;6.002;2023-06-19T15:17:59;31.20;84.90
25951;DHT22;13748;52.240;6.002;2023-06-19T15:20:42;31.20;84.40
25951;DHT22;13748;52.240;6.002;2023-06-19T15:23:31;31.30;83.90
25951;DHT22;13748;52.240;6.002;2023-06-19T15:25:59;31.20;83.50
25951;DHT22;13748;52.240;6.002;2023-06-19T15:28:29;31.20;83.90
25951;DHT22;13748;52.240;6.002;2023-06-19T15:31:07;31.20;83.20
25951;DHT22;13748;52.240;6.002;2023-06-19T15:33:57;31.10;82.70
25951;DHT22;13748;52.240;6.002;2023-06-19T15:36:33;31.10;83.30
25951;DHT22;13748;52.240;6.002;2023-06-19T15:39:20;31.10;83.00
25951;DHT22;13748;52.240;6.002;2023-06-19T15:42:35;31.00;82.70
25951;DHT22;13748;52.240;6.002;2023-06-19T15:45:48;30.90;84.00
25951;DHT22;13748;52.240;6.002;2023-06-19T15:48:58;31.00;84.50
25951;DHT22;13748;52.240;6.002;2023-06-19T15:51:59;31.00;84.60
25951;DHT22;13748;52.240;6.002;2023-06-19T15:55:22;30.90;84.80
25951;DHT22;13748;52.240;6.002;2023-06-19T15:59:08;30.90;85.00
25951;DHT22;13748;52.240;6.002;2023-06-19T16:02:03;30.80;83.20
25951;DHT22;13748;52.240;6.002;2023-06-19T16:05:18;30.50;83.90
25951;DHT22;13748;52.240;6.002;2023-06-19T16:08:49;30.30;84.10
25951;DHT22;13748;52.240;6.002;2023-06-19T16:11:50;30.20;84.10
25951;DHT22;13748;52.240;6.002;2023-06-19T16:14:53;30.20;84.40
25951;DHT22;13748;52.240;6.002;2023-06-19T16:17:26;30.20;84.30
25951;DHT22;13748;52.240;6.002;2023-06-19T16:24:45;30.20;85.20
25951;DHT22;13748;52.240;6.002;2023-06-19T16:27:51;30.20;83.80